Time;durP1;ratioP1;P1;durP2;ratioP2;P2;SDS_P1;SDS_P2;PMS_P1;PMS_P2;Temp;Humidity;BMP_temperature;BMP_pressure;BME280_temperature;BME280_humidity;BME280_pressure;Samples;Min_cycle;Max_cycle;Signal;HPM_P1;HPM_P2
2021/12/10 00:01:35;;;;;;;91.60;38.00;;;;;;;0.49;79.76;100479.97;5038744;28;20055;-71
2021/12/10 00:04:02;;;;;;;101.57;37.17;;;;;;;0.50;79.98;100479.78;5039418;28;20029;-71
2021/12/10 00:06:33;;;;;;;96.13;35.28;;;;;;;0.48;80.03;100479.16;5033105;28;20032;-72
2021/12/10 00:09:10;;;;;;;102.13;34.65;;;;;;;0.46;79.78;100480.34;5035396;28;20025;-72
2021/12/10 00:11:42;;;;;;;94.68;35.28;;;;;;;0.43;80.02;100468.34;5034178;28;20025;-71
2021/12/10 00:14:09;;;;;;;97.20;37.63;;;;;;;0.44;80.03;100472.63;5037793;28;20052;-71
2021/12/10 00:16:37;;;;;;;94.53;36.50;;;;;;;0.44;80.12;100470.00;5037311;28;20036;-72
2021/12/10 00:19:42;;;;;;;97.88;37.85;;;;;;;0.47;80.19;100468.78;5031823;28;20116;-72
2021/12/10 00:21:57;;;;;;;98.32;37.08;;;;;;;0.45;80.30;100478.72;5036238;28;20034;-71
2021/12/10 00:24:26;;;;;;;99.88;38.00;;;;;;;0.46;80.08;100475.88;5039782;28;20448;-72
2021/12/10 00:26:54;;;;;;;97.38;38.47;;;;;;;0.46;80.10;100461.88;5046891;28;20068;-72
2021/12/10 00:29:21;;;;;;;98.75;35.58;;;;;;;0.47;80.18;100464.34;5043133;28;20388;-71
2021/12/10 00:31:54;;;;;;;95.68;37.13;;;;;;;0.48;80.00;100473.88;5042722;28;20124;-72
2021/12/10 00:34:36;;;;;;;98.85;34.78;;;;;;;0.46;79.84;100467.16;5039888;28;20075;-72
2021/12/10 00:37:06;;;;;;;88.68;34.17;;;;;;;0.47;80.09;100458.25;5036847;28;20048;-72
2021/12/10 00:39:37;;;;;;;96.85;38.75;;;;;;;0.45;80.24;100455.00;5040718;28;20051;-72
2021/12/10 00:42:12;;;;;;;94.35;36.13;;;;;;;0.47;80.21;100450.34;5052974;28;20024;-71
2021/12/10 00:44:38;;;;;;;96.88;35.78;;;;;;;0.43;79.91;100455.19;5039598;28;20033;-72
2021/12/10 00:47:04;;;;;;;101.18;38.30;;;;;;;0.43;79.93;100464.91;5034838;28;20056;-72
2021/12/10 00:49:31;;;;;;;98.25;37.17;;;;;;;0.40;80.25;100452.13;5036754;28;20083;-71
2021/12/10 00:51:56;;;;;;;99.05;36.03;;;;;;;0.41;80.32;100451.91;5050673;28;20529;-72
2021/12/10 00:54:22;;;;;;;95.57;36.35;;;;;;;0.42;80.21;100444.84;5038887;28;20039;-71
2021/12/10 00:56:48;;;;;;;99.00;37.17;;;;;;;0.43;80.46;100441.19;5037944;28;20052;-71
2021/12/10 00:59:17;;;;;;;97.70;36.70;;;;;;;0.44;80.35;100442.81;5033744;28;20404;-71
2021/12/10 01:01:43;;;;;;;106.07;38.13;;;;;;;0.45;79.88;100445.25;5038607;28;20071;-71
2021/12/10 01:04:29;;;;;;;102.95;36.10;;;;;;;0.45;80.18;100433.91;5040956;28;20085;-71
2021/12/10 01:06:57;;;;;;;91.45;37.38;;;;;;;0.43;80.23;100430.66;5040360;28;20118;-71
2021/12/10 01:09:31;;;;;;;104.75;37.22;;;;;;;0.43;80.02;100426.19;5031481;28;20036;-72
2021/12/10 01:12:04;;;;;;;96.15;36.78;;;;;;;0.42;80.17;100419.28;5037771;28;20051;-72
2021/12/10 01:14:52;;;;;;;101.10;37.45;;;;;;;0.43;80.16;100405.09;5038133;28;20032;-72
2021/12/10 01:25:40;;;;;;;87.03;33.35;;;;;;;0.38;80.25;100383.78;5038601;28;20116;-71
2021/12/10 01:28:08;;;;;;;97.10;34.67;;;;;;;0.38;80.08;100381.16;5035114;28;20029;-71
2021/12/10 01:30:38;;;;;;;93.35;35.92;;;;;;;0.37;80.27;100381.34;5041826;28;20103;-71
2021/12/10 01:33:08;;;;;;;95.90;36.63;;;;;;;0.37;80.20;100373.44;5043724;28;20120;-72
2021/12/10 01:35:42;;;;;;;94.63;35.60;;;;;;;0.37;79.90;100374.25;5043673;28;20607;-71
2021/12/10 01:38:10;;;;;;;94.20;36.92;;;;;;;0.38;80.15;100369.78;5041640;28;20037;-72
2021/12/10 01:40:39;;;;;;;104.03;38.70;;;;;;;0.36;80.16;100364.72;5041296;28;20040;-71
2021/12/10 01:43:07;;;;;;;91.00;34.40;;;;;;;0.36;80.30;100354.16;5041531;28;20026;-71
2021/12/10 01:45:47;;;;;;;98.85;35.03;;;;;;;0.35;80.39;100354.34;5044892;28;20025;-72
2021/12/10 01:48:18;;;;;;;87.68;34.58;;;;;;;0.37;80.19;100342.63;5041558;28;20075;-72
2021/12/10 01:50:44;;;;;;;95.10;35.05;;;;;;;0.38;80.15;100331.06;5036738;28;20086;-71
2021/12/10 01:53:14;;;;;;;96.97;36.10;;;;;;;0.38;80.22;100322.34;5040326;28;20025;-71
2021/12/10 01:55:43;;;;;;;90.25;34.30;;;;;;;0.38;80.13;100315.25;5038807;28;20060;-71
2021/12/10 01:58:12;;;;;;;85.00;35.22;;;;;;;0.42;80.08;100321.78;5038919;28;20112;-71
2021/12/10 02:00:42;;;;;;;93.95;34.72;;;;;;;0.41;80.03;100312.22;5040008;28;20017;-71
2021/12/10 02:03:09;;;;;;;95.13;35.97;;;;;;;0.43;79.92;100310.22;5039962;28;20053;-71
2021/12/10 02:05:35;;;;;;;91.35;33.92;;;;;;;0.42;80.15;100307.78;5039267;28;20025;-71
2021/12/10 02:08:00;;;;;;;84.63;37.60;;;;;;;0.42;79.82;100310.41;5042793;28;20044;-71
2021/12/10 02:10:29;;;;;;;95.63;35.45;;;;;;;0.41;79.85;100300.88;5038535;28;20040;-71
2021/12/10 02:12:56;;;;;;;94.50;34.60;;;;;;;0.43;80.17;100299.69;5041798;28;20025;-71
2021/12/10 02:15:25;;;;;;;86.70;35.88;;;;;;;0.45;79.89;100296.84;5044173;28;20082;-71
2021/12/10 02:17:52;;;;;;;91.05;36.70;;;;;;;0.42;80.06;100298.06;5042225;28;20022;-71
2021/12/10 02:20:23;;;;;;;87.93;33.95;;;;;;;0.43;79.94;100298.88;5044204;28;20040;-71
2021/12/10 02:22:50;;;;;;;88.18;33.95;;;;;;;0.43;80.13;100301.50;5042073;28;20028;-71
2021/12/10 02:25:20;;;;;;;91.22;35.50;;;;;;;0.43;80.00;100304.13;5040211;28;20482;-71
2021/12/10 02:27:46;;;;;;;90.18;32.45;;;;;;;0.43;80.25;100298.88;5041451;28;20112;-71
2021/12/10 02:30:13;;;;;;;89.38;34.90;;;;;;;0.42;80.10;100302.50;5042029;28;20111;-71
2021/12/10 02:32:39;;;;;;;99.57;36.13;;;;;;;0.40;79.87;100310.59;5041482;28;20455;-71
2021/12/10 02:35:07;;;;;;;96.85;36.63;;;;;;;0.37;80.04;100305.72;5038343;28;20127;-71
2021/12/10 02:37:34;;;;;;;93.78;34.42;;;;;;;0.40;79.93;100304.53;5037470;28;20661;-71
2021/12/10 02:40:00;;;;;;;91.10;34.63;;;;;;;0.41;80.22;100303.50;5050581;28;20033;-72
2021/12/10 02:42:25;;;;;;;98.05;36.70;;;;;;;0.42;79.96;100290.13;5047635;28;20138;-70
2021/12/10 02:44:51;;;;;;;88.95;34.20;;;;;;;0.41;79.71;100291.16;5046167;28;20033;-70
2021/12/10 02:47:20;;;;;;;93.13;34.10;;;;;;;0.41;80.13;100287.69;5042119;28;20553;-71
2021/12/10 02:49:46;;;;;;;99.65;37.47;;;;;;;0.42;80.09;100286.69;5033036;28;20026;-71
2021/12/10 02:52:13;;;;;;;95.22;37.97;;;;;;;0.42;79.82;100282.22;5039571;28;20029;-71
2021/12/10 02:54:42;;;;;;;95.28;36.40;;;;;;;0.42;79.96;100276.16;5040828;28;20370;-71
2021/12/10 02:57:12;;;;;;;95.20;35.42;;;;;;;0.42;80.02;100268.25;5042851;28;20116;-71
2021/12/10 02:59:38;;;;;;;90.03;35.55;;;;;;;0.41;80.07;100277.16;5042151;28;20059;-71
2021/12/10 03:02:07;;;;;;;94.93;35.80;;;;;;;0.40;79.77;100273.72;5041334;28;20021;-71
2021/12/10 03:04:34;;;;;;;96.82;36.80;;;;;;;0.41;80.03;100270.06;5039498;28;20025;-72
2021/12/10 03:07:03;;;;;;;99.93;36.08;;;;;;;0.38;80.01;100265.19;5036508;28;20029;-71
2021/12/10 03:09:30;;;;;;;95.93;35.40;;;;;;;0.41;80.09;100256.06;5038393;28;20164;-71
2021/12/10 03:11:58;;;;;;;94.25;34.97;;;;;;;0.42;80.13;100249.78;5042488;28;20037;-71
2021/12/10 03:14:28;;;;;;;100.38;34.92;;;;;;;0.41;80.16;100240.25;5043218;28;20106;-71
2021/12/10 03:16:57;;;;;;;98.05;35.17;;;;;;;0.42;80.07;100240.06;5041258;28;20026;-71
2021/12/10 03:19:22;;;;;;;89.90;34.05;;;;;;;0.44;80.07;100238.06;5043837;28;20025;-71
2021/12/10 03:21:49;;;;;;;98.10;34.83;;;;;;;0.46;79.96;100235.22;5038394;28;20024;-71
2021/12/10 03:24:18;;;;;;;95.68;35.65;;;;;;;0.48;80.00;100223.47;5038216;28;20025;-71
2021/12/10 03:26:44;;;;;;;91.38;34.83;;;;;;;0.47;79.81;100221.03;5037078;28;20032;-71
2021/12/10 03:29:09;;;;;;;91.15;37.47;;;;;;;0.47;79.82;100223.66;5059478;28;20021;-71
2021/12/10 03:31:36;;;;;;;96.45;34.58;;;;;;;0.49;79.94;100226.91;5041768;28;20491;-71
2021/12/10 03:34:04;;;;;;;90.45;33.63;;;;;;;0.49;79.59;100224.28;5043264;28;20147;-71
2021/12/10 03:36:30;;;;;;;85.53;33.75;;;;;;;0.48;80.00;100217.38;5039406;28;20143;-71
2021/12/10 03:38:56;;;;;;;95.88;35.03;;;;;;;0.48;79.66;100214.75;5035548;28;20039;-71
2021/12/10 03:41:22;;;;;;;89.13;33.33;;;;;;;0.45;79.85;100213.31;5037106;28;20137;-71
2021/12/10 03:43:50;;;;;;;93.57;38.33;;;;;;;0.47;79.80;100213.13;5038744;28;20029;-71
2021/12/10 03:46:18;;;;;;;84.05;33.75;;;;;;;0.46;79.95;100207.03;5037824;28;20032;-71
2021/12/10 03:48:45;;;;;;;86.60;32.35;;;;;;;0.48;79.81;100206.84;5042832;28;20017;-71
2021/12/10 03:51:16;;;;;;;82.10;33.70;;;;;;;0.48;79.56;100206.84;5057767;28;20086;-71
2021/12/10 03:53:43;;;;;;;93.25;34.50;;;;;;;0.47;79.99;100202.56;5036962;28;20107;-71
2021/12/10 03:56:13;;;;;;;89.47;33.83;;;;;;;0.46;79.60;100193.03;5038506;28;20301;-71
2021/12/10 03:58:39;;;;;;;96.07;35.25;;;;;;;0.45;79.74;100181.69;5033064;28;20057;-71
2021/12/10 04:01:08;;;;;;;82.95;32.60;;;;;;;0.44;79.53;100174.78;5038561;28;20021;-71
2021/12/10 04:03:34;;;;;;;84.47;34.17;;;;;;;0.46;79.66;100177.22;5040410;28;20029;-71
2021/12/10 04:06:00;;;;;;;92.82;33.22;;;;;;;0.44;79.63;100171.34;5040568;28;20037;-71
2021/12/10 04:08:27;;;;;;;90.32;34.33;;;;;;;0.46;79.51;100185.13;5036804;28;20672;-71
2021/12/10 04:10:54;;;;;;;96.28;33.97;;;;;;;0.45;79.36;100188.78;5035423;28;20052;-71
2021/12/10 04:13:21;;;;;;;96.82;35.50;;;;;;;0.44;79.42;100195.06;5042023;28;20063;-71
2021/12/10 04:15:47;;;;;;;94.57;34.22;;;;;;;0.40;79.83;100196.47;5041199;28;20032;-71
2021/12/10 04:18:14;;;;;;;90.80;32.80;;;;;;;0.40;79.55;100201.75;5039248;28;20028;-71
2021/12/10 04:20:40;;;;;;;91.50;33.30;;;;;;;0.39;79.86;100189.56;5041332;28;20052;-71
2021/12/10 04:23:11;;;;;;;88.25;33.78;;;;;;;0.36;79.62;100198.69;5038605;28;20033;-71
2021/12/10 04:25:36;;;;;;;90.35;33.53;;;;;;;0.37;79.69;100196.88;5039129;28;20048;-71
2021/12/10 04:28:07;;;;;;;86.65;33.65;;;;;;;0.36;79.72;100195.22;5037596;28;20217;-71
2021/12/10 04:30:39;;;;;;;88.15;35.55;;;;;;;0.34;79.67;100198.03;5035516;28;20107;-71
2021/12/10 04:33:06;;;;;;;89.82;33.80;;;;;;;0.35;79.33;100202.31;5037317;28;20036;-71
2021/12/10 04:35:33;;;;;;;85.97;33.45;;;;;;;0.35;79.60;100198.84;5034976;28;20120;-72
2021/12/10 04:37:59;;;;;;;88.90;34.30;;;;;;;0.33;79.46;100199.06;5039451;28;20044;-73
2021/12/10 04:40:25;;;;;;;82.45;32.38;;;;;;;0.32;79.46;100197.44;5034040;28;20021;-73
2021/12/10 04:42:51;;;;;;;82.47;32.47;;;;;;;0.29;79.77;100198.63;5039080;28;20027;-73
2021/12/10 04:45:18;;;;;;;94.72;34.42;;;;;;;0.29;79.47;100201.28;5039956;28;20036;-72
2021/12/10 04:47:46;;;;;;;84.07;32.90;;;;;;;0.22;79.79;100191.72;5035679;28;20025;-72
2021/12/10 04:50:15;;;;;;;84.60;33.45;;;;;;;0.22;79.94;100191.72;5041461;28;20032;-73
2021/12/10 04:52:41;;;;;;;87.10;35.53;;;;;;;0.23;79.69;100191.53;5040561;28;20017;-73
2021/12/10 04:55:12;;;;;;;92.43;34.08;;;;;;;0.20;79.50;100191.91;5039718;28;20665;-73
2021/12/10 04:57:40;;;;;;;85.75;33.20;;;;;;;0.24;79.74;100193.16;5038825;28;20421;-72
2021/12/10 05:00:14;;;;;;;92.32;33.95;;;;;;;0.26;80.07;100193.75;5038514;28;20070;-73
2021/12/10 05:02:39;;;;;;;101.73;35.83;;;;;;;0.26;79.98;100175.31;5040802;28;20439;-73
2021/12/10 05:05:08;;;;;;;92.38;34.65;;;;;;;0.27;79.92;100169.03;5045498;28;20091;-72
2021/12/10 05:07:36;;;;;;;89.43;34.25;;;;;;;0.26;79.67;100163.97;5043539;28;20025;-72
2021/12/10 05:10:08;;;;;;;80.45;33.33;;;;;;;0.28;79.79;100165.38;5042446;28;20055;-73
2021/12/10 05:12:34;;;;;;;84.22;33.38;;;;;;;0.29;79.73;100163.56;5045416;28;20029;-72
2021/12/10 05:15:01;;;;;;;90.35;36.47;;;;;;;0.30;79.85;100163.38;5039028;28;20102;-72
2021/12/10 05:17:30;;;;;;;82.03;33.67;;;;;;;0.32;79.62;100159.72;5045217;28;20033;-72
2021/12/10 05:19:57;;;;;;;88.20;34.13;;;;;;;0.33;79.89;100161.34;5041546;28;20048;-72
2021/12/10 05:22:23;;;;;;;90.70;34.42;;;;;;;0.35;79.80;100149.59;5043539;28;20025;-73
2021/12/10 05:24:48;;;;;;;88.97;33.80;;;;;;;0.35;79.75;100148.78;5044927;28;20082;-72
2021/12/10 05:27:13;;;;;;;84.35;30.40;;;;;;;0.37;79.43;100162.59;5043933;28;20464;-72
2021/12/10 05:29:39;;;;;;;91.53;36.15;;;;;;;0.37;79.89;100171.31;5046462;28;20064;-72
2021/12/10 05:32:05;;;;;;;84.80;34.15;;;;;;;0.36;79.71;100161.78;5040970;28;20057;-72
2021/12/10 05:34:31;;;;;;;86.20;31.02;;;;;;;0.36;79.71;100155.69;5034524;28;20036;-72
2021/12/10 05:36:58;;;;;;;91.40;33.55;;;;;;;0.37;79.65;100157.34;5038204;28;20045;-73
2021/12/10 05:39:24;;;;;;;89.15;35.10;;;;;;;0.34;79.87;100160.34;5037477;28;20028;-73
2021/12/10 05:41:51;;;;;;;91.15;33.22;;;;;;;0.35;79.92;100160.13;5038276;28;20116;-73
2021/12/10 05:44:17;;;;;;;81.78;33.20;;;;;;;0.38;79.74;100151.06;5037370;28;20084;-73
2021/12/10 05:46:42;;;;;;;80.93;32.38;;;;;;;0.36;79.80;100151.25;5039131;28;20428;-74
2021/12/10 05:49:08;;;;;;;83.88;32.95;;;;;;;0.36;79.80;100151.25;5036667;28;20031;-74
2021/12/10 05:51:35;;;;;;;84.72;33.75;;;;;;;0.38;79.69;100143.97;5040477;28;20095;-74
2021/12/10 05:54:01;;;;;;;91.03;32.60;;;;;;;0.38;79.58;100129.97;5042083;28;20573;-73
2021/12/10 05:56:26;;;;;;;85.80;33.90;;;;;;;0.38;79.74;100129.97;5043784;28;20028;-73
2021/12/10 05:58:52;;;;;;;89.88;33.65;;;;;;;0.38;79.90;100137.88;5041086;28;20056;-73
2021/12/10 06:01:20;;;;;;;88.55;33.95;;;;;;;0.38;79.79;100132.59;5044287;28;20020;-73
2021/12/10 06:03:53;;;;;;;83.10;31.73;;;;;;;0.38;79.65;100127.34;5038208;28;20111;-73
2021/12/10 06:06:22;;;;;;;89.53;32.97;;;;;;;0.34;79.70;100129.53;5040025;28;20025;-73
2021/12/10 06:08:48;;;;;;;87.50;33.80;;;;;;;0.36;79.77;100140.72;5040332;28;20024;-73
2021/12/10 06:11:14;;;;;;;92.70;33.70;;;;;;;0.37;79.78;100141.53;5036762;28;20025;-73
2021/12/10 06:13:40;;;;;;;87.10;32.80;;;;;;;0.34;79.70;100128.72;5058300;23;20099;-45
2021/12/10 06:16:07;;;;;;;88.72;33.70;;;;;;;0.33;79.47;100127.91;5061331;28;20446;-47
2021/12/10 06:18:33;;;;;;;84.60;32.00;;;;;;;0.30;79.71;100134.38;5056804;28;20392;-46
2021/12/10 06:20:59;;;;;;;82.80;35.20;;;;;;;0.30;79.82;100137.03;5052928;28;20028;-46
2021/12/10 06:23:24;;;;;;;87.05;32.25;;;;;;;0.30;79.74;100137.03;5053216;28;20028;-45
2021/12/10 06:25:50;;;;;;;88.70;33.05;;;;;;;0.32;79.91;100144.72;5062290;28;20020;-47
2021/12/10 06:28:17;;;;;;;88.00;32.03;;;;;;;0.30;79.79;100139.66;5062088;28;20029;-49
2021/12/10 06:30:45;;;;;;;91.80;36.55;;;;;;;0.27;79.81;100137.41;5058408;28;20025;-53
2021/12/10 06:33:15;;;;;;;89.35;33.65;;;;;;;0.26;79.82;100132.34;5056984;28;20038;-48
2021/12/10 06:35:42;;;;;;;85.18;33.72;;;;;;;0.29;79.60;100134.59;5055983;28;20155;-52
2021/12/10 06:38:09;;;;;;;83.30;32.55;;;;;;;0.30;79.80;100131.75;5054978;28;20488;-47
2021/12/10 06:40:37;;;;;;;86.90;31.42;;;;;;;0.32;79.81;100128.09;5051475;28;20052;-47
2021/12/10 06:43:04;;;;;;;87.22;32.95;;;;;;;0.29;79.73;100124.84;5054311;28;20024;-47
2021/12/10 06:45:31;;;;;;;82.90;32.97;;;;;;;0.30;79.88;100126.47;5057486;28;20047;-50
2021/12/10 06:48:01;;;;;;;87.93;32.70;;;;;;;0.31;79.56;100132.56;5056674;28;20519;-50
2021/12/10 06:50:31;;;;;;;79.68;32.58;;;;;;;0.30;79.75;100134.38;5051124;28;20556;-49
2021/12/10 06:52:57;;;;;;;76.38;31.67;;;;;;;0.28;79.55;100136.41;5053137;28;20028;-49
2021/12/10 06:55:24;;;;;;;86.63;33.60;;;;;;;0.29;79.63;100138.03;5051195;28;20060;-55
2021/12/10 06:57:50;;;;;;;85.50;33.67;;;;;;;0.27;79.38;100140.06;5057758;28;20043;-49
2021/12/10 07:00:29;;;;;;;87.57;31.52;;;;;;;0.25;79.56;100128.91;5050260;28;20572;-47
2021/12/10 07:02:55;;;;;;;88.28;32.22;;;;;;;0.23;79.66;100123.00;5053453;28;20058;-48
2021/12/10 07:05:21;;;;;;;86.68;32.63;;;;;;;0.23;79.75;100112.47;5054791;28;20028;-49
2021/12/10 07:07:47;;;;;;;82.78;32.00;;;;;;;0.25;79.83;100117.53;5051556;28;20487;-48
2021/12/10 07:10:15;;;;;;;81.03;35.47;;;;;;;0.25;79.60;100128.09;5050693;28;20043;-49
2021/12/10 07:12:42;;;;;;;83.35;32.40;;;;;;;0.26;79.79;100125.25;5054351;28;20420;-48
2021/12/10 07:15:11;;;;;;;83.05;35.20;;;;;;;0.26;79.93;100122.63;5057925;28;20710;-47
2021/12/10 07:17:43;;;;;;;85.45;32.63;;;;;;;0.27;79.92;100112.88;5052720;28;20425;-49
2021/12/10 07:20:11;;;;;;;83.07;31.38;;;;;;;0.29;79.74;100108.22;5055374;28;20031;-47
2021/12/10 07:22:37;;;;;;;85.10;32.38;;;;;;;0.30;79.94;100110.66;5051444;28;20100;-52
2021/12/10 07:25:05;;;;;;;85.00;32.03;;;;;;;0.32;79.64;100123.66;5052474;28;20089;-52
2021/12/10 07:27:30;;;;;;;86.28;32.47;;;;;;;0.33;79.55;100124.47;5051934;28;20086;-48
2021/12/10 07:29:56;;;;;;;90.15;35.88;;;;;;;0.35;79.81;100132.97;5056223;28;20025;-51
2021/12/10 07:32:21;;;;;;;74.90;32.30;;;;;;;0.30;79.86;100112.50;5051381;28;20250;-53
2021/12/10 07:34:47;;;;;;;91.90;35.00;;;;;;;0.30;79.61;100115.13;5052655;28;20032;-48
2021/12/10 07:37:13;;;;;;;91.80;35.17;;;;;;;0.27;79.87;100113.69;5055101;28;20055;-47
2021/12/10 07:39:39;;;;;;;85.60;34.85;;;;;;;0.27;79.49;100121.59;5052256;28;20362;-47
2021/12/10 07:42:07;;;;;;;86.53;34.30;;;;;;;0.23;79.84;100115.13;5054436;28;20054;-50
2021/12/10 07:44:35;;;;;;;82.03;34.55;;;;;;;0.23;79.96;100114.28;5051808;28;20272;-50
2021/12/10 07:47:09;;;;;;;87.47;33.83;;;;;;;0.21;79.56;100111.88;5053922;28;20059;-49
2021/12/10 07:49:37;;;;;;;83.80;33.95;;;;;;;0.21;79.83;100111.88;5052609;28;20111;-49
2021/12/10 07:52:15;;;;;;;88.55;33.33;;;;;;;0.21;80.07;100106.59;5051176;28;20028;-50
2021/12/10 07:54:46;;;;;;;75.95;30.33;;;;;;;0.22;79.91;100102.94;5052346;28;20036;-54
2021/12/10 07:57:13;;;;;;;85.97;34.60;;;;;;;0.21;79.97;100093.41;5055698;28;20492;-47
2021/12/10 07:59:39;;;;;;;89.03;34.85;;;;;;;0.22;79.70;100097.69;5052140;28;20033;-47
2021/12/10 08:02:05;;;;;;;85.28;33.75;;;;;;;0.20;80.11;100091.78;5054851;28;20078;-47
2021/12/10 08:04:31;;;;;;;89.60;35.55;;;;;;;0.21;79.80;100089.97;5052094;28;20052;-48
2021/12/10 08:06:58;;;;;;;91.03;35.17;;;;;;;0.19;80.08;100094.63;5052109;28;20409;-50
2021/12/10 08:09:23;;;;;;;91.13;33.72;;;;;;;0.21;79.92;100084.72;5055939;28;20020;-50
2021/12/10 08:11:50;;;;;;;98.13;36.42;;;;;;;0.22;79.86;100087.13;5049592;28;20406;-50
2021/12/10 08:14:16;;;;;;;92.05;35.22;;;;;;;0.23;79.83;100077.41;5049837;28;20631;-53
2021/12/10 08:16:42;;;;;;;86.40;33.05;;;;;;;0.23;79.77;100072.16;5051217;28;20128;-54
2021/12/10 08:19:08;;;;;;;93.82;34.70;;;;;;;0.22;79.84;100071.34;5051573;28;20123;-50
2021/12/10 08:21:34;;;;;;;92.78;36.05;;;;;;;0.21;79.65;100067.06;5047537;28;20143;-50
2021/12/10 08:24:00;;;;;;;84.32;33.88;;;;;;;0.21;79.87;100063.63;5049518;28;20609;-51
2021/12/10 08:26:26;;;;;;;90.75;34.13;;;;;;;0.22;79.82;100063.44;5050283;28;20524;-53
2021/12/10 08:28:52;;;;;;;85.63;33.65;;;;;;;0.22;79.92;100055.53;5054108;28;20111;-49
2021/12/10 08:31:19;;;;;;;96.80;35.10;;;;;;;0.19;80.13;100050.66;5048371;28;20025;-47
2021/12/10 08:33:48;;;;;;;93.57;34.53;;;;;;;0.18;79.71;100046.41;5049798;28;20043;-49
2021/12/10 08:36:15;;;;;;;89.22;35.05;;;;;;;0.21;79.74;100040.72;5051164;28;20035;-49
2021/12/10 08:38:41;;;;;;;89.90;35.47;;;;;;;0.12;79.37;100034.00;5051150;28;20029;-49
2021/12/10 08:41:11;;;;;;;88.10;33.58;;;;;;;0.08;79.78;100039.88;5049811;28;20020;-49
2021/12/10 08:43:38;;;;;;;86.55;33.95;;;;;;;0.07;79.84;100035.59;5049766;28;20111;-51
2021/12/10 08:46:05;;;;;;;83.60;33.53;;;;;;;0.09;79.99;100039.66;5049800;28;20032;-49
2021/12/10 08:48:32;;;;;;;93.28;36.03;;;;;;;0.12;80.00;100036.63;5052604;28;20029;-48
2021/12/10 08:51:01;;;;;;;89.20;34.97;;;;;;;0.14;80.05;100037.25;5048650;28;20389;-49
2021/12/10 08:53:27;;;;;;;89.63;33.00;;;;;;;0.15;80.44;100038.88;5048930;28;20032;-51
2021/12/10 08:55:56;;;;;;;87.13;32.05;;;;;;;0.22;80.18;100038.91;5053033;28;20025;-53
2021/12/10 08:58:22;;;;;;;88.65;33.53;;;;;;;0.26;79.91;100030.41;5053986;28;20021;-51
2021/12/10 09:00:55;;;;;;;83.82;33.80;;;;;;;0.30;80.15;100036.09;5051653;28;20028;-49
2021/12/10 09:03:21;;;;;;;83.15;34.45;;;;;;;0.34;79.88;100037.31;5050772;28;20384;-52
2021/12/10 09:05:47;;;;;;;81.10;33.90;;;;;;;0.36;79.76;100029.19;5048565;28;20028;-51
2021/12/10 09:08:13;;;;;;;87.90;32.75;;;;;;;0.36;79.82;100029.19;5050191;28;20094;-52
2021/12/10 09:10:43;;;;;;;86.80;34.88;;;;;;;0.38;79.78;100029.84;5047885;28;20104;-48
2021/12/10 09:13:13;;;;;;;88.55;34.25;;;;;;;0.40;79.55;100035.72;5050569;28;20431;-48
2021/12/10 09:15:42;;;;;;;93.13;33.83;;;;;;;0.41;79.85;100038.16;5050088;28;20166;-53
2021/12/10 09:18:08;;;;;;;91.38;37.30;;;;;;;0.46;79.61;100019.09;5053721;28;20024;-48
2021/12/10 09:20:38;;;;;;;87.97;34.53;;;;;;;0.43;79.47;100025.59;5047780;28;20021;-47
2021/12/10 09:23:09;;;;;;;88.75;33.10;;;;;;;0.43;79.42;100028.22;5048395;28;20176;-49
2021/12/10 09:25:36;;;;;;;87.68;35.88;;;;;;;0.44;79.50;100032.47;5048578;28;20225;-50
2021/12/10 09:28:02;;;;;;;94.88;35.35;;;;;;;0.40;79.53;100025.19;5049177;28;20543;-49
2021/12/10 09:30:30;;;;;;;93.15;35.80;;;;;;;0.43;79.52;100027.41;5044886;28;20056;-52
2021/12/10 09:32:56;;;;;;;89.43;34.28;;;;;;;0.44;79.58;100031.66;5049011;28;20032;-50
2021/12/10 09:35:24;;;;;;;86.47;34.17;;;;;;;0.45;79.40;100033.28;5048377;28;20028;-49
2021/12/10 09:37:50;;;;;;;85.82;33.00;;;;;;;0.47;79.59;100029.44;5053126;28;20145;-52
2021/12/10 09:40:31;;;;;;;88.13;34.90;;;;;;;0.51;79.45;100024.56;5047840;28;20041;-48
2021/12/10 09:42:58;;;;;;;85.72;35.13;;;;;;;0.51;79.44;100024.56;5053073;28;20395;-52
2021/12/10 09:45:26;;;;;;;101.32;36.78;;;;;;;0.52;79.31;100026.19;5047998;28;20052;-55
2021/12/10 09:47:52;;;;;;;91.85;36.92;;;;;;;0.49;79.34;100019.50;5050149;28;20167;-51
2021/12/10 09:50:21;;;;;;;95.93;35.08;;;;;;;0.53;79.18;100014.63;5047790;28;20025;-51
2021/12/10 09:52:47;;;;;;;90.65;34.22;;;;;;;0.55;79.23;100020.53;5051433;28;20016;-50
2021/12/10 09:55:16;;;;;;;88.63;34.42;;;;;;;0.55;79.32;100012.63;5051471;28;20118;-49
2021/12/10 09:57:45;;;;;;;96.30;37.10;;;;;;;0.52;79.02;100013.81;5052585;28;20031;-54
2021/12/10 10:00:21;;;;;;;88.65;34.63;;;;;;;0.47;79.24;100012.81;5055549;28;20032;-48
2021/12/10 10:02:47;;;;;;;94.47;35.72;;;;;;;0.52;79.48;100007.75;5054847;28;21016;-49
2021/12/10 10:05:14;;;;;;;95.50;35.17;;;;;;;0.54;79.16;100003.09;5056160;28;20286;-50
2021/12/10 10:07:40;;;;;;;93.00;35.88;;;;;;;0.57;79.26;100005.34;5050823;28;20623;-55
2021/12/10 10:10:12;;;;;;;90.38;36.42;;;;;;;0.55;79.17;100002.09;5051327;28;20107;-52
2021/12/10 10:12:41;;;;;;;91.32;36.22;;;;;;;0.59;79.26;100000.66;5055594;28;20638;-51
2021/12/10 10:15:13;;;;;;;94.40;36.15;;;;;;;0.57;79.18;99998.25;5050145;28;20028;-50
2021/12/10 10:17:39;;;;;;;98.18;36.92;;;;;;;0.60;79.21;99997.84;5052158;28;20021;-50
2021/12/10 10:20:08;;;;;;;88.40;36.60;;;;;;;0.63;78.97;99993.97;5050621;28;20392;-52
2021/12/10 10:22:34;;;;;;;88.30;34.25;;;;;;;0.65;79.18;99993.78;5058133;28;20044;-50
2021/12/10 10:25:00;;;;;;;93.38;38.25;;;;;;;0.67;79.09;99984.66;5050691;28;20071;-52
2021/12/10 10:27:32;;;;;;;93.97;35.42;;;;;;;0.69;78.75;99987.06;5050131;28;20040;-53
2021/12/10 10:30:14;;;;;;;94.25;36.50;;;;;;;0.71;78.90;99977.13;5051420;28;20399;-51
2021/12/10 10:32:44;;;;;;;90.95;34.67;;;;;;;0.73;78.99;99977.78;5051972;28;20028;-54
2021/12/10 10:35:17;;;;;;;102.43;38.78;;;;;;;0.75;78.91;99981.81;5053191;28;20025;-49
2021/12/10 10:37:44;;;;;;;92.10;34.35;;;;;;;0.76;78.66;99978.19;5050233;28;20043;-54
2021/12/10 10:40:15;;;;;;;98.30;36.47;;;;;;;0.78;78.93;99975.34;5050540;28;20021;-47
2021/12/10 10:42:41;;;;;;;101.82;38.88;;;;;;;0.79;78.94;99972.50;5050228;28;20091;-51
2021/12/10 10:45:14;;;;;;;88.03;34.95;;;;;;;0.77;78.76;99979.00;5055383;28;20031;-49
2021/12/10 10:47:40;;;;;;;99.20;39.08;;;;;;;0.77;78.91;99965.81;5051508;28;20028;-52
2021/12/10 10:50:13;;;;;;;107.15;37.95;;;;;;;0.77;78.99;99966.63;5049438;28;20105;-52
2021/12/10 10:52:43;;;;;;;99.13;37.95;;;;;;;0.80;78.93;99968.03;5050860;28;20254;-49
2021/12/10 10:55:11;;;;;;;109.18;39.35;;;;;;;0.81;79.03;99964.38;5055533;28;20033;-49
2021/12/10 10:57:47;;;;;;;102.07;38.75;;;;;;;0.84;78.93;99963.97;5051018;28;20033;-49
2021/12/10 11:00:19;;;;;;;108.75;40.92;;;;;;;0.86;78.85;99969.84;5055127;28;20044;-53
2021/12/10 11:02:52;;;;;;;105.32;40.22;;;;;;;0.88;78.80;99965.97;5055052;28;20025;-51
2021/12/10 11:05:22;;;;;;;94.80;37.75;;;;;;;0.87;78.79;99960.91;5055201;28;20086;-49
2021/12/10 11:07:52;;;;;;;108.80;39.90;;;;;;;0.87;78.92;99956.44;5050329;28;20032;-50
2021/12/10 11:10:40;;;;;;;107.13;38.75;;;;;;;0.84;78.72;99954.22;5049786;28;20094;-50
2021/12/10 11:13:23;;;;;;;97.45;39.10;;;;;;;0.82;78.84;99956.25;5056977;28;20063;-49
2021/12/10 11:16:06;;;;;;;101.88;39.58;;;;;;;0.77;78.79;99948.16;5050663;28;20028;-52
2021/12/10 11:18:46;;;;;;;94.13;36.58;;;;;;;0.79;78.98;99938.22;5049306;28;20024;-52
2021/12/10 11:21:12;;;;;;;97.68;39.65;;;;;;;0.76;79.16;99941.25;5051254;28;20492;-52
2021/12/10 11:23:42;;;;;;;98.43;34.83;;;;;;;0.74;79.04;99940.66;5050725;28;20066;-51
2021/12/10 11:26:08;;;;;;;101.60;37.00;;;;;;;0.75;78.86;99944.09;5054588;28;20043;-50
2021/12/10 11:28:36;;;;;;;98.82;38.17;;;;;;;0.71;79.29;99948.94;5048767;28;20079;-51
2021/12/10 11:31:07;;;;;;;101.40;38.38;;;;;;;0.66;79.33;99940.84;5050710;28;20035;-52